Time;durP1;ratioP1;P1;durP2;ratioP2;P2;SDS_P1;SDS_P2;PMS_P1;PMS_P2;Temp;Humidity;BMP_temperature;BMP_pressure;BME280_temperature;BME280_humidity;BME280_pressure;Samples;Min_cycle;Max_cycle;Signal;HPM_P1;HPM_P2
2023/06/05 00:01:11;;;;;;;4.95;2.80;;;;;;;;;;5024960;28;20052;-73
2023/06/05 00:03:37;;;;;;;6.18;2.88;;;;;;;;;;5013081;28;20104;-73
2023/06/05 00:06:03;;;;;;;4.80;2.42;;;;;;;;;;5010302;28;20038;-74
2023/06/05 00:08:28;;;;;;;5.35;2.78;;;;;;;;;;5024858;28;20953;-74
2023/06/05 00:10:53;;;;;;;8.20;2.97;;;;;;;;;;5023025;28;20514;-74
2023/06/05 00:13:19;;;;;;;5.75;3.10;;;;;;;;;;5025092;28;20101;-74
2023/06/05 00:15:44;;;;;;;7.32;2.88;;;;;;;;;;5024883;28;20037;-73
2023/06/05 00:18:09;;;;;;;5.78;2.67;;;;;;;;;;5022654;28;20232;-73
2023/06/05 00:20:35;;;;;;;6.68;2.75;;;;;;;;;;5019311;28;20033;-73
2023/06/05 00:23:00;;;;;;;5.70;2.80;;;;;;;;;;5018906;28;20653;-73
2023/06/05 00:25:25;;;;;;;5.65;2.53;;;;;;;;;;5025456;28;20469;-74
2023/06/05 00:27:51;;;;;;;5.80;2.70;;;;;;;;;;5023045;28;20498;-74
2023/06/05 00:30:16;;;;;;;3.45;2.55;;;;;;;;;;5024250;28;20038;-73
2023/06/05 00:32:41;;;;;;;5.38;2.67;;;;;;;;;;5024296;28;20596;-73
2023/06/05 00:35:07;;;;;;;5.13;2.72;;;;;;;;;;5023004;28;20677;-74
2023/06/05 00:37:33;;;;;;;5.03;2.70;;;;;;;;;;5021757;28;20036;-73
2023/06/05 00:39:59;;;;;;;6.72;2.88;;;;;;;;;;5016782;28;20029;-74
2023/06/05 00:42:26;;;;;;;6.18;2.60;;;;;;;;;;5024146;28;20107;-73
2023/06/05 00:44:52;;;;;;;7.22;2.90;;;;;;;;;;5022844;28;20100;-73
2023/06/05 00:47:17;;;;;;;8.05;2.80;;;;;;;;;;5018491;28;20064;-73
2023/06/05 00:49:43;;;;;;;5.00;3.15;;;;;;;;;;5026258;28;20029;-73
2023/06/05 00:52:08;;;;;;;6.45;2.97;;;;;;;;;;5024458;28;20052;-74
2023/06/05 00:54:34;;;;;;;5.22;2.72;;;;;;;;;;5024309;28;20046;-73
2023/06/05 00:57:00;;;;;;;7.25;2.90;;;;;;;;;;5025330;28;20805;-73
2023/06/05 00:59:26;;;;;;;5.13;2.90;;;;;;;;;;5028418;28;20036;-74
2023/06/05 01:01:53;;;;;;;6.60;2.90;;;;;;;;;;5033458;28;20094;-73
2023/06/05 01:04:18;;;;;;;11.38;2.75;;;;;;;;;;5032064;28;20033;-73
2023/06/05 01:06:45;;;;;;;5.65;3.08;;;;;;;;;;5023603;28;20598;-73
2023/06/05 01:09:13;;;;;;;7.15;2.78;;;;;;;;;;5022451;28;20128;-73
2023/06/05 01:11:53;;;;;;;5.38;2.53;;;;;;;;;;5023228;28;20037;-73
2023/06/05 01:14:22;;;;;;;6.55;2.80;;;;;;;;;;5027446;28;20549;-73
2023/06/05 01:16:56;;;;;;;8.43;3.28;;;;;;;;;;5027974;28;20040;-73
2023/06/05 01:19:24;;;;;;;;;;;;;;;;;;5024989;28;20025;-74
2023/06/05 01:21:49;;;;;;;9.90;3.22;;;;;;;;;;5022846;28;19917;-73
2023/06/05 01:24:15;;;;;;;6.20;3.38;;;;;;;;;;5022341;28;20092;-73
2023/06/05 01:26:52;;;;;;;6.93;3.08;;;;;;;;;;5027752;28;20037;-74
2023/06/05 01:29:23;;;;;;;6.88;3.10;;;;;;;;;;5025986;28;20041;-73
2023/06/05 01:31:50;;;;;;;6.75;3.30;;;;;;;;;;5026229;28;20040;-73
2023/06/05 01:34:19;;;;;;;5.88;3.05;;;;;;;;;;5026245;28;20080;-74
2023/06/05 01:36:45;;;;;;;6.82;3.25;;;;;;;;;;5018346;28;20823;-73
2023/06/05 01:39:12;;;;;;;7.80;3.70;;;;;;;;;;5017218;28;20502;-73
2023/06/05 01:41:39;;;;;;;12.30;3.53;;;;;;;;;;5023868;28;20052;-73
2023/06/05 01:44:08;;;;;;;8.93;3.70;;;;;;;;;;5016025;28;20711;-73
2023/06/05 01:46:33;;;;;;;5.43;3.03;;;;;;;;;;5014792;28;20033;-74
2023/06/05 01:49:01;;;;;;;7.55;2.72;;;;;;;;;;5022582;28;20037;-73
2023/06/05 01:51:26;;;;;;;8.35;3.20;;;;;;;;;;5023319;28;20082;-73
2023/06/05 01:53:52;;;;;;;5.35;3.15;;;;;;;;;;5027155;28;20046;-73
2023/06/05 01:56:19;;;;;;;6.45;3.40;;;;;;;;;;5026754;28;20128;-73
2023/06/05 01:58:46;;;;;;;5.97;3.72;;;;;;;;;;5026906;28;20037;-73
2023/06/05 02:01:12;;;;;;;10.18;3.20;;;;;;;;;;5027100;28;20100;-73
2023/06/05 02:03:37;;;;;;;5.65;3.05;;;;;;;;;;5025959;28;20149;-73
2023/06/05 02:06:03;;;;;;;7.22;3.42;;;;;;;;;;5025771;28;20101;-73
2023/06/05 02:08:28;;;;;;;6.15;3.20;;;;;;;;;;5024727;28;20038;-73
2023/06/05 02:10:54;;;;;;;8.10;3.15;;;;;;;;;;5025459;28;20061;-73
2023/06/05 02:13:20;;;;;;;9.18;3.70;;;;;;;;;;5019617;28;20987;-73
2023/06/05 02:15:46;;;;;;;10.30;3.25;;;;;;;;;;5025744;28;20124;-73
2023/06/05 02:18:12;;;;;;;8.98;3.35;;;;;;;;;;5025815;28;20044;-73
2023/06/05 02:20:40;;;;;;;8.38;3.58;;;;;;;;;;5026136;28;20041;-73
2023/06/05 02:23:06;;;;;;;5.22;2.95;;;;;;;;;;5027891;28;20037;-73
2023/06/05 02:25:32;;;;;;;5.65;3.60;;;;;;;;;;5034896;28;20032;-73
2023/06/05 02:27:57;;;;;;;13.48;3.80;;;;;;;;;;5032741;28;20580;-73
2023/06/05 02:30:22;;;;;;;7.97;3.33;;;;;;;;;;5018264;28;20029;-73
2023/06/05 02:32:56;;;;;;;5.63;3.30;;;;;;;;;;5026917;28;20063;-73
2023/06/05 02:35:22;;;;;;;6.80;3.38;;;;;;;;;;5024584;28;20045;-73
2023/06/05 02:37:47;;;;;;;10.93;3.92;;;;;;;;;;5024874;28;20033;-73
2023/06/05 02:40:14;;;;;;;7.85;3.40;;;;;;;;;;5018056;28;20052;-73
2023/06/05 02:42:40;;;;;;;5.88;3.97;;;;;;;;;;5021421;28;20032;-73
2023/06/05 02:45:07;;;;;;;8.30;3.88;;;;;;;;;;5025353;28;20029;-73
2023/06/05 02:47:33;;;;;;;10.18;3.60;;;;;;;;;;5025120;28;20033;-73
2023/06/05 02:49:59;;;;;;;8.05;3.72;;;;;;;;;;5023805;28;20530;-73
2023/06/05 02:52:25;;;;;;;7.55;3.67;;;;;;;;;;5024262;28;20029;-73
2023/06/05 02:54:51;;;;;;;8.93;3.60;;;;;;;;;;5024974;28;20036;-73
2023/06/05 02:57:17;;;;;;;6.88;3.28;;;;;;;;;;5024578;28;20546;-73
2023/06/05 02:59:42;;;;;;;10.05;3.63;;;;;;;;;;5020853;28;20041;-73
2023/06/05 03:02:08;;;;;;;7.22;3.97;;;;;;;;;;4981500;28;1106320;-73
2023/06/05 03:04:34;;;;;;;7.78;3.60;;;;;;;;;;5025704;28;20033;-73
2023/06/05 03:07:03;;;;;;;10.82;4.22;;;;;;;;;;5026204;28;20021;-73
2023/06/05 03:09:31;;;;;;;8.50;4.05;;;;;;;;;;5025374;28;20478;-74
2023/06/05 03:11:57;;;;;;;7.65;4.20;;;;;;;;;;5024947;28;20048;-73
2023/06/05 03:14:23;;;;;;;11.27;3.63;;;;;;;;;;5020486;28;20060;-73
2023/06/05 03:16:48;;;;;;;9.48;3.97;;;;;;;;;;5015101;28;20034;-73
2023/06/05 03:19:14;;;;;;;10.00;3.83;;;;;;;;;;5018644;28;20025;-73
2023/06/05 03:21:41;;;;;;;7.47;4.30;;;;;;;;;;5025382;28;20435;-73
2023/06/05 03:24:12;;;;;;;7.10;3.78;;;;;;;;;;5025101;28;20649;-73
2023/06/05 03:26:39;;;;;;;7.82;3.90;;;;;;;;;;5023329;28;20037;-73
2023/06/05 03:29:05;;;;;;;7.57;3.53;;;;;;;;;;5025559;28;20041;-73
2023/06/05 03:31:30;;;;;;;7.28;3.47;;;;;;;;;;5016831;28;20029;-73
2023/06/05 03:33:58;;;;;;;6.97;3.72;;;;;;;;;;5018489;28;20032;-73
2023/06/05 03:36:23;;;;;;;10.27;3.70;;;;;;;;;;5025858;28;20029;-73
2023/06/05 03:38:49;;;;;;;9.02;4.30;;;;;;;;;;5017430;28;20053;-73
2023/06/05 03:41:14;;;;;;;13.35;3.92;;;;;;;;;;5019618;28;20041;-73
2023/06/05 03:43:40;;;;;;;13.75;3.97;;;;;;;;;;5024611;28;20710;-73
2023/06/05 03:46:05;;;;;;;12.40;4.10;;;;;;;;;;5026663;28;20044;-73
2023/06/05 03:48:30;;;;;;;12.88;4.10;;;;;;;;;;5031094;28;20025;-73
2023/06/05 03:50:57;;;;;;;7.65;3.85;;;;;;;;;;5036843;28;20044;-73
2023/06/05 03:53:23;;;;;;;13.65;4.20;;;;;;;;;;5032081;28;20033;-73
2023/06/05 03:55:52;;;;;;;7.85;3.92;;;;;;;;;;5019713;28;20049;-73
2023/06/05 03:58:19;;;;;;;9.48;3.45;;;;;;;;;;5016842;28;20009;-73
2023/06/05 04:00:46;;;;;;;6.53;3.78;;;;;;;;;;5025157;28;20041;-73
2023/06/05 04:03:12;;;;;;;6.07;3.70;;;;;;;;;;5024231;28;20051;-73
2023/06/05 04:05:41;;;;;;;8.55;3.95;;;;;;;;;;5024039;28;20523;-73
2023/06/05 04:08:08;;;;;;;6.95;3.63;;;;;;;;;;5024100;28;20033;-73
2023/06/05 04:10:33;;;;;;;7.50;4.03;;;;;;;;;;5022932;28;20025;-73
2023/06/05 04:12:59;;;;;;;6.88;3.63;;;;;;;;;;5024602;28;20044;-73
2023/06/05 04:15:25;;;;;;;8.52;4.22;;;;;;;;;;5022817;28;20041;-73
2023/06/05 04:17:50;;;;;;;8.43;3.92;;;;;;;;;;5024428;28;20577;-73
2023/06/05 04:20:16;;;;;;;9.65;3.90;;;;;;;;;;5023518;28;20036;-73
2023/06/05 04:22:42;;;;;;;8.85;4.22;;;;;;;;;;5022799;28;20078;-74
2023/06/05 04:25:10;;;;;;;7.32;4.30;;;;;;;;;;5024907;28;20048;-73
2023/06/05 04:27:36;;;;;;;7.20;3.92;;;;;;;;;;5023647;28;20831;-73
2023/06/05 04:30:02;;;;;;;6.13;3.92;;;;;;;;;;5021465;28;20180;-73
2023/06/05 04:32:29;;;;;;;11.65;4.30;;;;;;;;;;5023630;28;20063;-73
2023/06/05 04:34:54;;;;;;;9.82;3.90;;;;;;;;;;5022380;28;20055;-73
2023/06/05 04:37:20;;;;;;;9.25;4.43;;;;;;;;;;5024553;28;20453;-73
2023/06/05 04:39:45;;;;;;;7.70;4.22;;;;;;;;;;5011787;28;20330;-73
2023/06/05 04:42:10;;;;;;;7.82;3.78;;;;;;;;;;5019035;28;20688;-73
2023/06/05 04:44:37;;;;;;;9.35;4.30;;;;;;;;;;5024188;28;20171;-73
2023/06/05 04:47:06;;;;;;;7.72;3.95;;;;;;;;;;5023855;28;20037;-73
2023/06/05 04:49:31;;;;;;;7.82;3.97;;;;;;;;;;5022495;28;20022;-73
2023/06/05 04:51:56;;;;;;;8.25;4.00;;;;;;;;;;5024173;28;20040;-73
2023/06/05 04:54:22;;;;;;;7.00;3.90;;;;;;;;;;5023834;28;20041;-73
2023/06/05 04:56:49;;;;;;;6.60;3.47;;;;;;;;;;5023975;28;20557;-73
2023/06/05 04:59:14;;;;;;;13.60;4.57;;;;;;;;;;5021213;28;20466;-73
2023/06/05 05:01:42;;;;;;;9.10;4.30;;;;;;;;;;5022722;28;20546;-73
2023/06/05 05:04:07;;;;;;;12.35;3.90;;;;;;;;;;5024155;28;20072;-73
2023/06/05 05:06:33;;;;;;;10.85;4.65;;;;;;;;;;5023573;28;20087;-73
2023/06/05 05:08:59;;;;;;;6.55;3.80;;;;;;;;;;5023274;28;20054;-74
2023/06/05 05:11:25;;;;;;;9.93;4.82;;;;;;;;;;5025775;28;20045;-74
2023/06/05 05:13:50;;;;;;;8.70;4.18;;;;;;;;;;5032538;28;20466;-73
2023/06/05 05:16:16;;;;;;;8.93;4.28;;;;;;;;;;5038690;28;20071;-73
2023/06/05 05:18:44;;;;;;;7.22;4.20;;;;;;;;;;5030009;28;20061;-73
2023/06/05 05:21:09;;;;;;;7.53;4.07;;;;;;;;;;5025294;28;20044;-73
2023/06/05 05:23:35;;;;;;;11.45;4.60;;;;;;;;;;5022297;28;20042;-73
2023/06/05 05:26:01;;;;;;;7.35;4.57;;;;;;;;;;5019758;28;20060;-73
2023/06/05 05:28:27;;;;;;;8.88;4.32;;;;;;;;;;5023525;28;20033;-73
2023/06/05 05:30:52;;;;;;;8.63;4.70;;;;;;;;;;5022258;28;20037;-73
2023/06/05 05:33:18;;;;;;;8.35;4.68;;;;;;;;;;5021548;28;20033;-73
2023/06/05 05:35:46;;;;;;;9.60;5.03;;;;;;;;;;5023318;28;20514;-73
2023/06/05 05:38:12;;;;;;;9.77;4.18;;;;;;;;;;5020026;28;20029;-74
2023/06/05 05:40:37;;;;;;;9.45;4.90;;;;;;;;;;5014198;28;20063;-73
2023/06/05 05:43:02;;;;;;;7.68;4.40;;;;;;;;;;5023794;28;20061;-73
2023/06/05 05:45:28;;;;;;;11.48;4.75;;;;;;;;;;5022820;28;20502;-73
2023/06/05 05:47:53;;;;;;;12.20;5.13;;;;;;;;;;5022679;28;20065;-73
2023/06/05 05:50:19;;;;;;;11.18;4.80;;;;;;;;;;5023366;28;20038;-73
2023/06/05 05:52:44;;;;;;;14.05;4.60;;;;;;;;;;5020388;28;20499;-73
2023/06/05 05:55:10;;;;;;;15.05;4.78;;;;;;;;;;5024025;28;20025;-73
2023/06/05 05:57:36;;;;;;;12.13;5.43;;;;;;;;;;5026205;28;20091;-73
2023/06/05 06:00:03;;;;;;;8.75;4.45;;;;;;;;;;5026242;28;20045;-73
2023/06/05 06:02:29;;;;;;;13.38;5.25;;;;;;;;;;5026265;28;20045;-73
2023/06/05 06:04:54;;;;;;;12.30;5.35;;;;;;;;;;5023019;28;20040;-73
2023/06/05 06:07:20;;;;;;;12.88;4.80;;;;;;;;;;5024472;28;20025;-73
2023/06/05 06:09:46;;;;;;;13.48;5.78;;;;;;;;;;5026972;28;20041;-73
2023/06/05 06:12:11;;;;;;;12.68;4.97;;;;;;;;;;5026047;28;20074;-73
2023/06/05 06:14:37;;;;;;;12.00;4.93;;;;;;;;;;5025495;28;20044;-73
2023/06/05 06:17:05;;;;;;;12.52;5.03;;;;;;;;;;5024212;28;20116;-73
2023/06/05 06:19:31;;;;;;;9.43;4.78;;;;;;;;;;5026648;28;20105;-73
2023/06/05 06:21:56;;;;;;;10.60;5.00;;;;;;;;;;5026584;28;20108;-73
2023/06/05 06:24:22;;;;;;;9.02;5.07;;;;;;;;;;5026255;28;20034;-73
2023/06/05 06:26:48;;;;;;;14.05;5.20;;;;;;;;;;5026917;28;20538;-73
2023/06/05 06:29:17;;;;;;;12.57;5.32;;;;;;;;;;5025263;28;20399;-73
2023/06/05 06:31:43;;;;;;;11.20;5.20;;;;;;;;;;5026631;28;20029;-73
2023/06/05 06:34:10;;;;;;;9.13;5.32;;;;;;;;;;5026346;28;20029;-73
2023/06/05 06:36:40;;;;;;;12.32;5.63;;;;;;;;;;5029438;28;20045;-73
2023/06/05 06:39:08;;;;;;;11.00;5.43;;;;;;;;;;5025493;28;20105;-73
2023/06/05 06:41:34;;;;;;;9.07;4.88;;;;;;;;;;5034553;28;20030;-73
2023/06/05 06:44:00;;;;;;;10.07;5.15;;;;;;;;;;5025749;28;20033;-73
2023/06/05 06:46:26;;;;;;;11.48;5.32;;;;;;;;;;5026026;28;20044;-73
2023/06/05 06:48:51;;;;;;;10.98;5.10;;;;;;;;;;5026742;28;20036;-73
2023/06/05 06:51:17;;;;;;;10.25;5.72;;;;;;;;;;5017211;28;20530;-73
2023/06/05 06:53:43;;;;;;;10.82;5.60;;;;;;;;;;5011518;28;20070;-73
2023/06/05 06:56:09;;;;;;;14.38;5.47;;;;;;;;;;5017053;28;20056;-73
2023/06/05 06:58:35;;;;;;;11.45;5.78;;;;;;;;;;5015750;28;20545;-73
2023/06/05 07:01:00;;;;;;;11.95;5.60;;;;;;;;;;5008404;28;20025;-73
2023/06/05 07:03:25;;;;;;;11.77;5.72;;;;;;;;;;5018184;28;20096;-73
2023/06/05 07:05:51;;;;;;;11.25;6.00;;;;;;;;;;5024467;28;20056;-73
2023/06/05 07:08:16;;;;;;;14.20;6.32;;;;;;;;;;5017600;28;20038;-73
2023/06/05 07:10:42;;;;;;;17.42;6.30;;;;;;;;;;5025106;28;20485;-73
2023/06/05 07:13:07;;;;;;;11.77;6.00;;;;;;;;;;5025741;28;20031;-73
2023/06/05 07:15:32;;;;;;;12.57;5.78;;;;;;;;;;5023839;28;20029;-73
2023/06/05 07:17:58;;;;;;;11.23;6.07;;;;;;;;;;5024291;28;20035;-73
2023/06/05 07:20:23;;;;;;;15.00;5.85;;;;;;;;;;5024194;28;20033;-73
2023/06/05 07:22:48;;;;;;;12.38;5.43;;;;;;;;;;5023388;28;20028;-73
2023/06/05 07:25:15;;;;;;;13.32;5.85;;;;;;;;;;5024374;28;20096;-73
2023/06/05 07:27:43;;;;;;;13.70;6.03;;;;;;;;;;5023649;28;20029;-73
2023/06/05 07:30:10;;;;;;;12.10;5.78;;;;;;;;;;5024141;28;20026;-73
2023/06/05 07:32:35;;;;;;;13.23;5.90;;;;;;;;;;5024068;28;20640;-73
2023/06/05 07:35:02;;;;;;;14.80;5.80;;;;;;;;;;5024927;28;20071;-73
2023/06/05 07:37:27;;;;;;;11.55;6.35;;;;;;;;;;5017821;28;20021;-73
2023/06/05 07:39:53;;;;;;;10.48;5.78;;;;;;;;;;5010677;28;20048;-73
2023/06/05 07:42:19;;;;;;;11.68;5.90;;;;;;;;;;5023577;28;20076;-73
2023/06/05 07:44:45;;;;;;;11.27;6.43;;;;;;;;;;5018370;28;20033;-73
2023/06/05 07:47:10;;;;;;;13.77;6.43;;;;;;;;;;5020888;28;20035;-73
2023/06/05 07:49:35;;;;;;;10.30;5.70;;;;;;;;;;5018766;28;20017;-73
2023/06/05 07:52:01;;;;;;;12.52;6.45;;;;;;;;;;5014790;28;20040;-73
2023/06/05 07:54:26;;;;;;;17.38;6.90;;;;;;;;;;5017877;28;20044;-73
2023/06/05 07:56:51;;;;;;;12.23;6.43;;;;;;;;;;5015918;28;20538;-73
2023/06/05 07:59:24;;;;;;;10.38;5.78;;;;;;;;;;5019655;28;20660;-73
2023/06/05 08:01:49;;;;;;;12.65;5.53;;;;;;;;;;5023696;28;20541;-73
2023/06/05 08:04:15;;;;;;;13.80;5.97;;;;;;;;;;5028009;28;20041;-73
2023/06/05 08:06:41;;;;;;;15.82;6.22;;;;;;;;;;5027037;28;20041;-73
2023/06/05 08:09:10;;;;;;;12.00;6.60;;;;;;;;;;5019733;28;20049;-73
2023/06/05 08:11:38;;;;;;;13.25;6.35;;;;;;;;;;5023056;28;20046;-73
2023/06/05 08:14:07;;;;;;;12.88;5.63;;;;;;;;;;5022636;28;20554;-73
2023/06/05 08:16:34;;;;;;;14.25;5.65;;;;;;;;;;5017592;28;20091;-73
2023/06/05 08:18:59;;;;;;;12.57;6.50;;;;;;;;;;5019464;28;20025;-73
2023/06/05 08:21:25;;;;;;;10.18;5.97;;;;;;;;;;5015411;28;20454;-73
2023/06/05 08:23:50;;;;;;;12.65;6.25;;;;;;;;;;5014431;28;20136;-73
2023/06/05 08:26:18;;;;;;;13.35;5.80;;;;;;;;;;5007699;28;20064;-73
2023/06/05 08:28:44;;;;;;;12.60;5.95;;;;;;;;;;5008635;28;20040;-73
2023/06/05 08:31:10;;;;;;;12.73;5.72;;;;;;;;;;5021006;28;20009;-73
2023/06/05 08:33:36;;;;;;;11.60;6.55;;;;;;;;;;5024580;28;20037;-73
2023/06/05 08:36:03;;;;;;;14.27;6.75;;;;;;;;;;5024375;28;20140;-73
2023/06/05 08:38:29;;;;;;;14.20;6.07;;;;;;;;;;5018628;28;20034;-73
2023/06/05 08:41:02;;;;;;;11.48;5.88;;;;;;;;;;5008792;28;20057;-73
2023/06/05 08:43:28;;;;;;;;;;;;;;;;;;5023743;28;20017;-73
2023/06/05 08:45:55;;;;;;;10.93;5.88;;;;;;;;;;5024409;28;19936;-73
2023/06/05 08:48:21;;;;;;;17.40;5.75;;;;;;;;;;5024060;28;20032;-73
2023/06/05 08:50:51;;;;;;;17.08;6.25;;;;;;;;;;5021952;28;20040;-73
2023/06/05 08:53:17;;;;;;;10.27;6.15;;;;;;;;;;5020940;28;20722;-72
2023/06/05 08:55:45;;;;;;;10.45;5.97;;;;;;;;;;5022567;28;20025;-72
2023/06/05 08:58:12;;;;;;;11.50;5.80;;;;;;;;;;5023912;28;20022;-72
2023/06/05 09:00:38;;;;;;;10.35;5.90;;;;;;;;;;5019163;28;20071;-72
2023/06/05 09:03:05;;;;;;;13.13;6.30;;;;;;;;;;5018741;28;20257;-73
2023/06/05 09:05:31;;;;;;;12.05;5.70;;;;;;;;;;5022951;28;20029;-72
2023/06/05 09:07:58;;;;;;;10.43;5.72;;;;;;;;;;5021229;28;20629;-73
2023/06/05 09:10:28;;;;;;;10.77;5.22;;;;;;;;;;5025845;28;20561;-73
2023/06/05 09:13:01;;;;;;;9.30;5.57;;;;;;;;;;5022895;28;20037;-73
2023/06/05 09:15:29;;;;;;;10.18;5.68;;;;;;;;;;5023812;28;20574;-73
2023/06/05 09:18:08;;;;;;;10.90;5.93;;;;;;;;;;5024459;28;20040;-73
2023/06/05 09:20:35;;;;;;;12.98;5.78;;;;;;;;;;5024356;28;20097;-74
2023/06/05 09:23:03;;;;;;;12.10;5.95;;;;;;;;;;5019506;28;20050;-73
2023/06/05 09:25:50;;;;;;;13.98;6.00;;;;;;;;;;5028039;28;20029;-74
2023/06/05 09:28:15;;;;;;;8.85;5.18;;;;;;;;;;5027738;28;20072;-75
2023/06/05 09:31:13;;;;;;;10.23;5.07;;;;;;;;;;5025272;28;20069;-75
2023/06/05 09:33:38;;;;;;;12.13;5.35;;;;;;;;;;5019314;28;20395;-75
2023/06/05 09:36:09;;;;;;;10.05;5.18;;;;;;;;;;5027332;28;20537;-74
2023/06/05 09:38:36;;;;;;;12.88;5.63;;;;;;;;;;5015541;28;20419;-73
2023/06/05 09:41:18;;;;;;;9.75;5.05;;;;;;;;;;5020400;28;20486;-74
2023/06/05 09:43:45;;;;;;;11.93;5.40;;;;;;;;;;5026241;28;20020;-74
2023/06/05 09:46:12;;;;;;;9.48;4.80;;;;;;;;;;5026741;28;20075;-79
2023/06/05 09:48:43;;;;;;;10.32;5.57;;;;;;;;;;5027491;28;20032;-74
2023/06/05 09:51:10;;;;;;;9.23;5.20;;;;;;;;;;5026588;28;20564;-74
2023/06/05 09:53:42;;;;;;;8.48;5.13;;;;;;;;;;5026896;28;20042;-74
2023/06/05 09:56:13;;;;;;;9.70;5.47;;;;;;;;;;5026937;28;20099;-74
2023/06/05 09:58:43;;;;;;;9.73;4.93;;;;;;;;;;5020896;28;20057;-73
2023/06/05 10:01:09;;;;;;;9.65;4.75;;;;;;;;;;5022678;28;20017;-73
2023/06/05 10:03:36;;;;;;;12.00;5.40;;;;;;;;;;5016142;28;20049;-74
2023/06/05 10:06:05;;;;;;;11.40;5.00;;;;;;;;;;5025095;28;20030;-74
2023/06/05 10:08:30;;;;;;;9.00;4.80;;;;;;;;;;5024432;28;20036;-74
2023/06/05 10:10:56;;;;;;;11.05;5.38;;;;;;;;;;5017142;28;20029;-74
2023/06/05 10:13:22;;;;;;;10.38;5.50;;;;;;;;;;5027326;28;20016;-74
2023/06/05 10:15:52;;;;;;;11.23;5.50;;;;;;;;;;5026301;28;20033;-74
2023/06/05 10:18:17;;;;;;;9.35;4.72;;;;;;;;;;5026141;28;20060;-74
2023/06/05 10:20:46;;;;;;;12.85;6.07;;;;;;;;;;5019147;28;20111;-74
2023/06/05 10:23:14;;;;;;;10.13;5.05;;;;;;;;;;5015284;28;20782;-74
2023/06/05 10:25:41;;;;;;;9.45;4.97;;;;;;;;;;5021954;28;20029;-74
2023/06/05 10:28:25;;;;;;;9.65;4.95;;;;;;;;;;5020929;28;20028;-74
2023/06/05 10:31:34;;;;;;;9.57;5.47;;;;;;;;;;5021399;28;20044;-74
2023/06/05 10:34:12;;;;;;;11.52;5.72;;;;;;;;;;5021285;28;20502;-74
2023/06/05 10:37:03;;;;;;;10.18;5.22;;;;;;;;;;5025889;28;20068;-74
2023/06/05 10:39:30;;;;;;;9.65;5.25;;;;;;;;;;5012870;28;20044;-74
2023/06/05 10:41:57;;;;;;;14.82;5.40;;;;;;;;;;5024716;28;20041;-75
2023/06/05 10:44:42;;;;;;;12.35;5.50;;;;;;;;;;5025905;28;20033;-74
2023/06/05 10:47:46;;;;;;;10.52;5.30;;;;;;;;;;5018845;28;20064;-74
2023/06/05 10:50:17;;;;;;;;;;;;;;;;;;5032239;28;20071;-74
2023/06/05 10:52:44;;;;;;;8.25;4.95;;;;;;;;;;5042163;28;19940;-74
2023/06/05 10:55:12;;;;;;;10.27;5.20;;;;;;;;;;5028810;28;20040;-74
2023/06/05 10:58:07;;;;;;;10.75;4.97;;;;;;;;;;5025242;28;20116;-74
2023/06/05 11:00:33;;;;;;;8.80;4.50;;;;;;;;;;5025909;28;20048;-74
2023/06/05 11:02:59;;;;;;;8.15;4.30;;;;;;;;;;5020422;28;20049;-74
2023/06/05 11:05:25;;;;;;;9.10;4.43;;;;;;;;;;5025602;28;20521;-74
2023/06/05 11:08:14;;;;;;;9.85;4.50;;;;;;;;;;5025204;28;20049;-74
2023/06/05 11:11:05;;;;;;;8.15;4.20;;;;;;;;;;5024018;28;20079;-74
2023/06/05 11:13:56;;;;;;;13.18;4.78;;;;;;;;;;5025364;28;20029;-74
2023/06/05 11:16:28;;;;;;;7.35;4.53;;;;;;;;;;5017737;28;20057;-74
2023/06/05 11:18:54;;;;;;;11.55;5.07;;;;;;;;;;5023689;28;20039;-74
2023/06/05 11:21:20;;;;;;;8.25;4.40;;;;;;;;;;5025359;28;20079;-74
2023/06/05 11:24:17;;;;;;;10.20;4.50;;;;;;;;;;5023962;28;20558;-74
2023/06/05 11:26:43;;;;;;;11.20;4.82;;;;;;;;;;5017212;28;20041;-73
2023/06/05 11:29:14;;;;;;;8.18;4.05;;;;;;;;;;5025338;28;20037;-74
2023/06/05 11:31:39;;;;;;;11.00;4.22;;;;;;;;;;5023904;28;20108;-74
2023/06/05 11:34:12;;;;;;;9.65;4.40;;;;;;;;;;5023097;28;20171;-74
2023/06/05 11:36:38;;;;;;;7.90;3.78;;;;;;;;;;5023616;28;20590;-74
2023/06/05 11:39:03;;;;;;;8.57;4.05;;;;;;;;;;5013245;28;20034;-73
2023/06/05 11:41:29;;;;;;;7.07;3.63;;;;;;;;;;5020500;28;20161;-73
2023/06/05 11:43:56;;;;;;;8.57;3.88;;;;;;;;;;5024519;28;20058;-74
2023/06/05 11:46:36;;;;;;;7.93;3.53;;;;;;;;;;5025100;28;20044;-74
2023/06/05 11:49:01;;;;;;;6.30;4.15;;;;;;;;;;5023692;28;20060;-74
2023/06/05 11:51:35;;;;;;;6.25;3.35;;;;;;;;;;5024635;28;20025;-74
2023/06/05 11:54:05;;;;;;;6.72;3.30;;;;;;;;;;5023200;28;20049;-74
2023/06/05 11:56:32;;;;;;;10.63;3.40;;;;;;;;;;5024293;28;20033;-75
2023/06/05 11:58:57;;;;;;;5.40;3.30;;;;;;;;;;5023404;28;20034;-74
2023/06/05 12:01:25;;;;;;;6.63;3.35;;;;;;;;;;5025323;28;20071;-74
2023/06/05 12:04:07;;;;;;;5.22;3.13;;;;;;;;;;5024479;28;20076;-74
2023/06/05 12:06:41;;;;;;;4.70;2.90;;;;;;;;;;5018621;28;20048;-74
2023/06/05 12:09:11;;;;;;;4.82;3.35;;;;;;;;;;5017936;28;20142;-74
2023/06/05 12:11:40;;;;;;;5.15;2.88;;;;;;;;;;5025606;28;20624;-73
2023/06/05 12:14:06;;;;;;;8.63;3.65;;;;;;;;;;5031919;28;20104;-74
2023/06/05 12:16:35;;;;;;;7.72;3.70;;;;;;;;;;5032374;28;20067;-74
2023/06/05 12:19:03;;;;;;;7.18;3.00;;;;;;;;;;5021302;28;20020;-74
2023/06/05 12:21:28;;;;;;;4.65;2.88;;;;;;;;;;5020104;28;20075;-74
2023/06/05 12:24:04;;;;;;;4.97;2.80;;;;;;;;;;5019887;28;20060;-74
2023/06/05 12:26:30;;;;;;;9.43;3.30;;;;;;;;;;5021036;28;20041;-74
2023/06/05 12:29:05;;;;;;;4.65;2.85;;;;;;;;;;5020777;28;20037;-74
2023/06/05 12:31:35;;;;;;;7.05;3.38;;;;;;;;;;5020850;28;20052;-74
2023/06/05 12:34:03;;;;;;;6.97;3.00;;;;;;;;;;5020499;28;20079;-74
2023/06/05 12:36:28;;;;;;;5.07;3.38;;;;;;;;;;5019425;28;20584;-74
2023/06/05 12:38:54;;;;;;;5.60;2.75;;;;;;;;;;5012561;28;20034;-73
2023/06/05 12:41:20;;;;;;;5.45;3.03;;;;;;;;;;5016260;28;20128;-73
2023/06/05 12:43:45;;;;;;;4.63;2.78;;;;;;;;;;5019569;28;20028;-73
2023/06/05 12:46:11;;;;;;;3.97;2.65;;;;;;;;;;5020365;28;20152;-73
2023/06/05 12:48:38;;;;;;;5.22;2.75;;;;;;;;;;5020413;28;20415;-74
2023/06/05 12:51:03;;;;;;;4.65;2.67;;;;;;;;;;5018290;28;20056;-74
2023/06/05 12:53:29;;;;;;;6.75;2.75;;;;;;;;;;5018066;28;20441;-74
2023/06/05 12:55:54;;;;;;;5.57;3.72;;;;;;;;;;5018094;28;20033;-73
2023/06/05 12:58:19;;;;;;;8.35;3.20;;;;;;;;;;5018887;28;20033;-73
2023/06/05 13:00:45;;;;;;;7.88;3.28;;;;;;;;;;5019973;28;20049;-73
2023/06/05 13:03:10;;;;;;;3.88;2.78;;;;;;;;;;5018479;28;20056;-74
2023/06/05 13:05:35;;;;;;;4.93;2.60;;;;;;;;;;5022706;28;20041;-74
2023/06/05 13:08:01;;;;;;;5.07;3.05;;;;;;;;;;5021775;28;20033;-73
2023/06/05 13:10:26;;;;;;;3.83;3.10;;;;;;;;;;5024094;28;20047;-74
2023/06/05 13:12:52;;;;;;;5.50;3.20;;;;;;;;;;5024548;28;20500;-73
2023/06/05 13:15:17;;;;;;;5.78;2.67;;;;;;;;;;5024161;28;20095;-73
2023/06/05 13:17:43;;;;;;;5.22;3.38;;;;;;;;;;5023112;28;20029;-74
2023/06/05 13:20:10;;;;;;;4.97;3.28;;;;;;;;;;5022320;28;20033;-74
2023/06/05 13:22:36;;;;;;;6.28;3.70;;;;;;;;;;5023691;28;20061;-74
2023/06/05 13:25:02;;;;;;;7.53;3.10;;;;;;;;;;5023079;28;20376;-74
2023/06/05 13:27:27;;;;;;;4.60;2.95;;;;;;;;;;5024983;28;20775;-74
2023/06/05 13:29:53;;;;;;;6.13;3.10;;;;;;;;;;5026527;28;20034;-74
2023/06/05 13:32:19;;;;;;;3.15;2.53;;;;;;;;;;5027457;28;20037;-73
2023/06/05 13:34:46;;;;;;;5.65;2.95;;;;;;;;;;5027504;28;20029;-73
2023/06/05 13:37:12;;;;;;;5.10;2.53;;;;;;;;;;5034311;28;20522;-73
2023/06/05 13:39:37;;;;;;;3.67;2.70;;;;;;;;;;5028385;28;20045;-73
2023/06/05 13:42:03;;;;;;;6.10;3.00;;;;;;;;;;5037590;28;20123;-74
2023/06/05 13:44:30;;;;;;;9.15;3.00;;;;;;;;;;5029232;28;20028;-73
2023/06/05 13:46:55;;;;;;;4.47;2.75;;;;;;;;;;5021232;28;20030;-72
2023/06/05 13:49:21;;;;;;;4.50;2.50;;;;;;;;;;5024204;28;20032;-74
2023/06/05 13:51:46;;;;;;;6.28;3.13;;;;;;;;;;5019333;28;20053;-74
2023/06/05 13:54:11;;;;;;;4.63;3.35;;;;;;;;;;5026379;28;20080;-74
2023/06/05 13:56:37;;;;;;;6.40;3.17;;;;;;;;;;5027218;28;20029;-75
2023/06/05 13:59:02;;;;;;;7.18;3.40;;;;;;;;;;5026856;28;20173;-75
2023/06/05 14:01:27;;;;;;;5.78;3.10;;;;;;;;;;5019744;28;20036;-75
2023/06/05 14:03:53;;;;;;;4.68;3.25;;;;;;;;;;5025912;28;20046;-75
2023/06/05 14:06:18;;;;;;;6.20;3.00;;;;;;;;;;5025230;28;20033;-75
2023/06/05 14:08:45;;;;;;;4.35;2.90;;;;;;;;;;5025636;28;20571;-72
2023/06/05 14:11:10;;;;;;;8.38;3.08;;;;;;;;;;5026253;28;20033;-74
2023/06/05 14:13:36;;;;;;;5.10;3.15;;;;;;;;;;5025753;28;20021;-73
2023/06/05 14:16:03;;;;;;;3.88;3.08;;;;;;;;;;5025062;28;20029;-73
2023/06/05 14:18:29;;;;;;;8.30;3.50;;;;;;;;;;5025730;28;20036;-73
2023/06/05 14:20:54;;;;;;;6.55;3.33;;;;;;;;;;5023017;28;20033;-73
2023/06/05 14:23:22;;;;;;;4.72;3.45;;;;;;;;;;5026201;28;20035;-73
2023/06/05 14:25:48;;;;;;;4.53;3.38;;;;;;;;;;5023793;28;20018;-74
2023/06/05 14:28:14;;;;;;;4.90;3.25;;;;;;;;;;5024953;28;20039;-73
2023/06/05 14:30:40;;;;;;;5.90;3.38;;;;;;;;;;5024320;28;20037;-73
2023/06/05 14:33:05;;;;;;;5.55;3.30;;;;;;;;;;5024608;28;20511;-72
2023/06/05 14:35:30;;;;;;;4.93;3.45;;;;;;;;;;5025362;28;20040;-72
2023/06/05 14:37:56;;;;;;;6.25;3.10;;;;;;;;;;5023560;28;20099;-72
2023/06/05 14:40:21;;;;;;;4.20;3.33;;;;;;;;;;5009781;28;20021;-72